createdAt,value
2018-04-07T00:00:38.326Z,3.53
2018-04-07T00:03:06.306Z,5.17
2018-04-07T00:05:34.302Z,4.37
2018-04-07T00:08:02.269Z,5.10
2018-04-07T00:10:30.257Z,5.03
2018-04-07T00:12:58.226Z,2.97
2018-04-07T00:15:26.218Z,3.73
2018-04-07T00:17:54.119Z,5.60
2018-04-07T00:20:22.081Z,5.60
2018-04-07T00:22:50.067Z,6.20
2018-04-07T00:25:17.953Z,6.63
2018-04-07T00:27:46.034Z,3.37
2018-04-07T00:30:13.937Z,5.73
2018-04-07T00:32:41.860Z,5.83
2018-04-07T00:35:09.768Z,6.20
2018-04-07T00:37:37.678Z,3.93
2018-04-07T00:40:05.592Z,5.60
2018-04-07T00:42:33.495Z,4.97
2018-04-07T00:45:02.309Z,4.47
2018-04-07T00:47:30.233Z,5.73
2018-04-07T00:49:58.136Z,4.20
2018-04-07T00:52:26.236Z,3.53
2018-04-07T00:54:54.283Z,4.33
2018-04-07T00:57:22.162Z,3.23
2018-04-07T00:59:50.083Z,3.43
2018-04-07T01:02:17.984Z,9.10
2018-04-07T01:04:45.917Z,4.63
2018-04-07T01:07:13.855Z,7.43
2018-04-07T01:09:41.764Z,7.33
2018-04-07T01:12:09.673Z,4.63
2018-04-07T01:14:37.599Z,5.90
2018-04-07T01:17:05.530Z,6.00
2018-04-07T01:19:33.437Z,5.93
2018-04-07T01:22:01.442Z,5.30
2018-04-07T01:24:29.348Z,4.37
2018-04-07T01:26:57.247Z,7.37
2018-04-07T01:29:25.174Z,4.73
2018-04-07T01:31:53.081Z,4.83
2018-04-07T01:34:20.998Z,8.53
2018-04-07T01:36:49.028Z,4.10
2018-04-07T01:39:16.941Z,7.00
2018-04-07T01:41:45.469Z,6.63
2018-04-07T01:44:13.387Z,8.20
2018-04-07T01:46:41.293Z,7.23
2018-04-07T01:49:09.201Z,9.60
2018-04-07T01:51:37.115Z,5.10
2018-04-07T01:54:05.046Z,6.30
2018-04-07T01:56:33.824Z,7.63
2018-04-07T01:59:01.794Z,6.17
2018-04-07T02:01:29.708Z,5.17
2018-04-07T02:03:57.605Z,8.47
2018-04-07T02:06:25.544Z,7.60
2018-04-07T02:08:53.450Z,5.43
2018-04-07T02:11:21.829Z,7.33
2018-04-07T02:13:50.188Z,6.97
2018-04-07T02:16:18.100Z,6.87
2018-04-07T02:18:46.029Z,10.37
2018-04-07T02:21:14.869Z,5.50
2018-04-07T02:23:43.282Z,6.37
2018-04-07T02:26:11.980Z,13.03
2018-04-07T02:28:39.879Z,9.40
2018-04-07T02:31:07.797Z,7.03
2018-04-07T02:33:35.721Z,5.13
2018-04-07T02:36:03.666Z,11.03
2018-04-07T02:38:31.578Z,7.53
2018-04-07T02:40:59.473Z,9.70
2018-04-07T02:43:27.393Z,8.20
2018-04-07T02:45:56.020Z,5.93
2018-04-07T02:48:23.932Z,10.67
2018-04-07T02:50:51.875Z,8.30
2018-04-07T02:53:19.774Z,7.43
2018-04-07T02:55:47.698Z,9.23
2018-04-07T02:58:15.597Z,12.10
2018-04-07T03:00:43.496Z,5.43
2018-04-07T03:03:11.404Z,10.00
2018-04-07T03:05:39.321Z,11.53
2018-04-07T03:08:07.248Z,6.03
2018-04-07T03:10:35.271Z,8.73
2018-04-07T03:13:03.160Z,7.33
2018-04-07T03:15:31.080Z,7.40
2018-04-07T03:17:58.978Z,10.27
2018-04-07T03:20:26.909Z,8.23
2018-04-07T03:22:54.807Z,8.87
2018-04-07T03:25:22.756Z,8.07
2018-04-07T03:27:50.730Z,6.07
2018-04-07T03:30:18.601Z,9.93
2018-04-07T03:32:46.522Z,8.07
2018-04-07T03:35:14.428Z,7.83
2018-04-07T03:37:42.342Z,8.00
2018-04-07T03:40:10.253Z,8.63
2018-04-07T03:42:38.146Z,9.43
2018-04-07T03:45:06.091Z,6.97
2018-04-07T03:47:34.002Z,9.33
2018-04-07T03:50:01.917Z,9.57
2018-04-07T03:52:29.828Z,8.17
2018-04-07T03:54:57.737Z,6.27
2018-04-07T03:57:25.670Z,9.50
2018-04-07T03:59:53.585Z,6.67
2018-04-07T04:02:21.524Z,7.43
2018-04-07T04:04:49.441Z,8.67
2018-04-07T04:07:17.349Z,7.43
2018-04-07T04:09:45.309Z,6.43
2018-04-07T04:12:13.226Z,10.10
2018-04-07T04:14:41.152Z,7.70
2018-04-07T04:17:09.060Z,8.50
2018-04-07T04:19:36.985Z,12.97
2018-04-07T04:22:05.396Z,10.13
2018-04-07T04:24:33.377Z,8.40
2018-04-07T04:27:01.324Z,8.73
2018-04-07T04:29:29.236Z,12.20
2018-04-07T04:31:57.159Z,8.20
2018-04-07T04:34:25.080Z,10.87
2018-04-07T04:36:53.009Z,7.73
2018-04-07T04:39:20.896Z,9.53
2018-04-07T04:41:48.817Z,10.70
2018-04-07T04:44:16.731Z,9.53
2018-04-07T04:46:44.747Z,7.90
2018-04-07T04:49:12.729Z,11.50
2018-04-07T04:51:40.881Z,10.80
2018-04-07T04:54:09.541Z,10.67
2018-04-07T04:56:37.457Z,10.33
2018-04-07T04:59:05.388Z,9.90
2018-04-07T05:01:33.324Z,8.70
2018-04-07T05:04:01.280Z,10.10
2018-04-07T05:06:29.220Z,10.37
2018-04-07T05:08:57.518Z,12.33
2018-04-07T05:11:26.258Z,9.83
2018-04-07T05:13:54.454Z,7.43
2018-04-07T05:16:22.488Z,9.93
2018-04-07T05:18:50.460Z,10.53
2018-04-07T05:21:18.380Z,6.93
2018-04-07T05:23:46.325Z,8.93
2018-04-07T05:26:14.248Z,12.50
2018-04-07T05:28:42.156Z,7.90
2018-04-07T05:31:10.126Z,9.67
2018-04-07T05:33:38.128Z,9.10
2018-04-07T05:36:06.026Z,8.43
2018-04-07T05:38:33.998Z,11.77
2018-04-07T05:41:01.916Z,8.10
2018-04-07T05:43:29.837Z,8.03
2018-04-07T05:45:58.770Z,8.77
2018-04-07T05:48:26.680Z,8.30
2018-04-07T05:50:54.640Z,10.60
2018-04-07T05:53:22.561Z,9.97
2018-04-07T05:55:50.537Z,10.20
2018-04-07T05:58:18.508Z,8.63
2018-04-07T06:00:46.415Z,7.43
2018-04-07T06:03:14.419Z,6.90
2018-04-07T06:05:42.411Z,9.03
2018-04-07T06:08:10.513Z,6.50
2018-04-07T06:10:38.475Z,7.20
2018-04-07T06:13:06.387Z,10.07
2018-04-07T06:15:34.922Z,10.23
2018-04-07T06:18:02.820Z,8.33
2018-04-07T06:20:30.905Z,7.40
2018-04-07T06:22:58.831Z,8.70
2018-04-07T06:25:26.736Z,10.43
2018-04-07T06:27:54.727Z,7.87
2018-04-07T06:30:22.675Z,11.67
2018-04-07T06:32:50.595Z,7.63
2018-04-07T06:35:18.509Z,9.67
2018-04-07T06:37:46.452Z,8.40
2018-04-07T06:40:14.453Z,7.77
2018-04-07T06:42:42.388Z,9.70
2018-04-07T06:45:10.288Z,8.10
2018-04-07T06:47:38.210Z,8.80
2018-04-07T06:50:06.854Z,8.30
2018-04-07T06:52:34.792Z,7.37
2018-04-07T06:55:02.859Z,12.30
2018-04-07T06:57:30.717Z,5.70
2018-04-07T06:59:58.639Z,6.03
2018-04-07T07:02:26.571Z,11.23
2018-04-07T07:04:54.470Z,8.40
2018-04-07T07:07:22.375Z,12.37
2018-04-07T07:09:50.290Z,9.77
2018-04-07T07:12:18.251Z,8.23
2018-04-07T07:14:46.141Z,11.97
2018-04-07T07:17:14.054Z,9.20
2018-04-07T07:19:41.986Z,11.60
2018-04-07T07:22:09.884Z,6.40
2018-04-07T07:24:37.827Z,9.40
2018-04-07T07:27:05.807Z,9.33
2018-04-07T07:29:33.696Z,8.40
2018-04-07T07:32:01.632Z,7.90
2018-04-07T07:34:29.550Z,9.00
2018-04-07T07:36:57.514Z,8.83
2018-04-07T07:39:25.431Z,7.13
2018-04-07T07:41:53.378Z,12.43
2018-04-07T07:44:21.268Z,5.97
2018-04-07T07:46:49.183Z,8.00
2018-04-07T07:49:17.113Z,7.80
2018-04-07T07:51:45.027Z,15.07
2018-04-07T07:54:13.032Z,11.53
2018-04-07T07:56:40.953Z,11.63
2018-04-07T07:59:08.916Z,9.80
2018-04-07T08:01:36.843Z,9.50
2018-04-07T08:04:04.759Z,13.23
2018-04-07T08:06:32.897Z,8.97
2018-04-07T08:09:00.822Z,8.93
2018-04-07T08:11:28.739Z,11.10
2018-04-07T08:13:56.702Z,10.20
2018-04-07T08:16:24.666Z,11.23
2018-04-07T08:18:52.604Z,8.33
2018-04-07T08:21:20.733Z,7.83
2018-04-07T08:23:48.673Z,7.67
2018-04-07T08:26:16.767Z,8.63
2018-04-07T08:28:44.677Z,8.80
2018-04-07T08:31:12.618Z,10.40
2018-04-07T08:33:40.527Z,9.20
2018-04-07T08:36:08.444Z,5.23
2018-04-07T08:38:36.358Z,10.03
2018-04-07T08:41:04.303Z,8.83
2018-04-07T08:43:32.213Z,7.37
2018-04-07T08:46:00.137Z,11.30
2018-04-07T08:48:28.081Z,8.17
2018-04-07T08:50:56.033Z,8.60
2018-04-07T08:53:23.985Z,10.53
2018-04-07T08:55:51.876Z,11.70
2018-04-07T08:58:19.798Z,8.87
2018-04-07T09:00:47.731Z,8.43
2018-04-07T09:03:15.665Z,5.70
2018-04-07T09:05:43.637Z,8.23
2018-04-07T09:08:11.540Z,8.33
2018-04-07T09:10:39.461Z,8.33
2018-04-07T09:13:07.391Z,8.63
2018-04-07T09:15:35.317Z,7.33
2018-04-07T09:18:03.265Z,9.00
2018-04-07T09:20:31.173Z,9.30
2018-04-07T09:22:59.151Z,8.07
2018-04-07T09:25:27.090Z,6.50
2018-04-07T09:27:54.997Z,11.47
2018-04-07T09:30:22.956Z,8.23
2018-04-07T09:32:50.882Z,10.90
2018-04-07T09:35:18.797Z,6.83
2018-04-07T09:37:46.721Z,6.53
2018-04-07T09:40:15.169Z,8.60
2018-04-07T09:42:43.049Z,9.47
2018-04-07T09:45:10.969Z,9.50
2018-04-07T09:47:38.931Z,9.40
2018-04-07T09:50:06.841Z,8.60
2018-04-07T09:52:34.747Z,5.53
2018-04-07T09:55:02.880Z,6.53
2018-04-07T09:57:30.837Z,8.60
2018-04-07T09:59:58.762Z,9.10
2018-04-07T10:02:41.575Z,8.63
2018-04-07T10:05:09.508Z,8.77
2018-04-07T10:07:37.415Z,10.07
2018-04-07T10:10:05.333Z,8.10
2018-04-07T10:12:33.245Z,6.43
2018-04-07T10:15:01.183Z,4.73
2018-04-07T10:17:29.092Z,6.23
2018-04-07T10:19:57.004Z,10.07
2018-04-07T10:22:24.934Z,7.00
2018-04-07T10:24:52.866Z,6.43
2018-04-07T10:27:20.803Z,6.73
2018-04-07T10:29:48.746Z,6.20
2018-04-07T10:32:16.649Z,7.50
2018-04-07T10:34:44.653Z,8.50
2018-04-07T10:37:12.633Z,9.93
2018-04-07T10:39:40.557Z,9.63
2018-04-07T10:42:08.453Z,8.23
2018-04-07T10:44:36.367Z,9.27
2018-04-07T10:47:04.575Z,10.50
2018-04-07T10:49:34.141Z,6.70
2018-04-07T10:52:02.039Z,6.73
2018-04-07T10:54:29.949Z,9.30
2018-04-07T10:56:57.876Z,7.23
2018-04-07T10:59:25.803Z,7.63
2018-04-07T11:01:53.706Z,6.27
2018-04-07T11:04:22.984Z,9.23
2018-04-07T11:06:50.913Z,7.87
2018-04-07T11:09:18.857Z,9.07
2018-04-07T11:11:47.076Z,8.10
2018-04-07T11:14:14.981Z,6.90
2018-04-07T11:16:42.886Z,6.30
2018-04-07T11:19:10.804Z,8.83
2018-04-07T11:21:38.715Z,7.07
2018-04-07T11:24:06.648Z,8.70
2018-04-07T11:26:34.560Z,5.80
2018-04-07T11:29:02.477Z,6.77
2018-04-07T11:31:30.403Z,7.20
2018-04-07T11:33:58.317Z,6.73
2018-04-07T11:36:27.167Z,6.43
2018-04-07T11:38:55.075Z,7.50
2018-04-07T11:41:23.245Z,7.23
2018-04-07T11:43:51.219Z,7.83
2018-04-07T11:46:19.130Z,8.23
2018-04-07T11:48:47.037Z,5.97
2018-04-07T11:51:14.946Z,7.57
2018-04-07T11:53:42.892Z,8.20
2018-04-07T11:56:10.782Z,7.80
2018-04-07T11:58:38.748Z,8.30
2018-04-07T12:01:06.640Z,7.07
2018-04-07T12:03:34.545Z,6.20
2018-04-07T12:06:02.452Z,7.07
2018-04-07T12:08:30.343Z,6.90
2018-04-07T12:10:58.265Z,6.10
2018-04-07T12:13:26.165Z,6.50
2018-04-07T12:15:54.281Z,6.13
2018-04-07T12:18:22.179Z,6.70
2018-04-07T12:20:50.106Z,7.53
2018-04-07T12:23:18.029Z,5.77
2018-04-07T12:25:45.998Z,7.03
2018-04-07T12:28:13.906Z,6.17
2018-04-07T12:30:41.797Z,9.03
2018-04-07T12:33:09.744Z,7.80
2018-04-07T12:35:38.097Z,6.40
2018-04-07T12:38:06.022Z,8.00
2018-04-07T12:40:33.928Z,8.50
2018-04-07T12:43:01.855Z,7.23
2018-04-07T12:45:30.261Z,6.30
2018-04-07T12:47:59.772Z,8.17
2018-04-07T12:50:31.328Z,7.87
2018-04-07T12:52:59.365Z,7.50
2018-04-07T12:55:27.462Z,9.50
2018-04-07T12:57:55.477Z,7.20
2018-04-07T13:00:23.504Z,6.37
2018-04-07T13:02:51.579Z,8.20
2018-04-07T13:05:19.789Z,6.80
2018-04-07T13:07:47.951Z,7.53
2018-04-07T13:10:16.380Z,8.30
2018-04-07T13:12:44.337Z,7.20
2018-04-07T13:15:12.245Z,7.90
2018-04-07T13:17:40.336Z,7.70
2018-04-07T13:20:08.422Z,8.27
2018-04-07T13:22:36.794Z,6.83
2018-04-07T13:25:04.889Z,6.43
2018-04-07T13:27:33.316Z,7.40
2018-04-07T13:30:01.832Z,8.10
2018-04-07T13:32:29.873Z,7.70
2018-04-07T13:34:57.999Z,7.37
2018-04-07T13:37:26.046Z,7.30
2018-04-07T13:39:54.808Z,10.40
2018-04-07T13:42:22.724Z,9.20
2018-04-07T13:44:50.645Z,8.37
2018-04-07T13:47:18.755Z,7.77
2018-04-07T13:49:46.686Z,6.10
2018-04-07T13:52:14.603Z,8.20
2018-04-07T13:54:42.518Z,9.30
2018-04-07T13:57:10.476Z,8.97
2018-04-07T13:59:38.428Z,8.37
2018-04-07T14:02:06.329Z,10.40
2018-04-07T14:04:34.270Z,8.37
2018-04-07T14:07:02.180Z,7.67
2018-04-07T14:09:30.101Z,7.40
2018-04-07T14:11:58.101Z,8.60
2018-04-07T14:14:26.029Z,9.30
2018-04-07T14:16:53.949Z,8.90
2018-04-07T14:19:21.848Z,9.57
2018-04-07T14:21:49.773Z,7.97
2018-04-07T14:24:17.704Z,7.90
2018-04-07T14:26:45.644Z,8.97
2018-04-07T14:29:13.575Z,8.07
2018-04-07T14:31:41.486Z,7.20
2018-04-07T14:34:09.407Z,11.43
2018-04-07T14:36:37.334Z,9.87
2018-04-07T14:39:06.117Z,8.60
2018-04-07T14:41:34.058Z,7.00
2018-04-07T14:44:01.991Z,8.33
2018-04-07T14:46:29.887Z,10.13
2018-04-07T14:48:57.830Z,6.63
2018-04-07T14:51:25.746Z,8.30
2018-04-07T14:53:53.665Z,9.30
2018-04-07T14:56:21.577Z,10.67
2018-04-07T14:58:49.485Z,9.17
2018-04-07T15:01:17.406Z,9.00
2018-04-07T15:03:45.300Z,7.87
2018-04-07T15:06:13.246Z,10.63
2018-04-07T15:08:41.161Z,8.30
2018-04-07T15:11:09.450Z,8.10
2018-04-07T15:13:37.376Z,8.20
2018-04-07T15:16:05.332Z,8.93
2018-04-07T15:18:33.215Z,8.47
2018-04-07T15:21:01.131Z,9.10
2018-04-07T15:23:29.046Z,8.70
2018-04-07T15:25:57.613Z,9.90
2018-04-07T15:28:25.536Z,10.80
2018-04-07T15:30:53.457Z,10.10
2018-04-07T15:33:21.371Z,9.57
2018-04-07T15:35:49.588Z,9.90
2018-04-07T15:38:17.520Z,8.60
2018-04-07T15:40:45.525Z,8.97
2018-04-07T15:43:13.457Z,9.37
2018-04-07T15:45:41.366Z,9.27
2018-04-07T15:48:09.293Z,7.60
2018-04-07T15:50:37.386Z,7.23
2018-04-07T15:53:05.311Z,8.90
2018-04-07T15:55:33.209Z,8.50
2018-04-07T15:58:01.190Z,9.50
2018-04-07T16:00:29.120Z,10.47
2018-04-07T16:02:57.033Z,8.70
2018-04-07T16:05:25.184Z,10.27
2018-04-07T16:07:53.274Z,9.00
2018-04-07T16:10:21.344Z,13.53
2018-04-07T16:12:49.308Z,8.53
2018-04-07T16:15:17.209Z,8.60
2018-04-07T16:17:45.121Z,7.43
2018-04-07T16:20:13.349Z,8.00
2018-04-07T16:22:41.946Z,6.80
2018-04-07T16:25:10.588Z,10.80
2018-04-07T16:27:38.458Z,8.73
2018-04-07T16:30:06.353Z,8.57
2018-04-07T16:32:34.269Z,7.57
2018-04-07T16:35:02.226Z,8.63
2018-04-07T16:37:30.150Z,11.93
2018-04-07T16:39:58.050Z,6.63
2018-04-07T16:42:25.936Z,9.53
2018-04-07T16:44:53.890Z,9.07
2018-04-07T16:47:22.138Z,10.40
2018-04-07T16:49:50.202Z,7.87
2018-04-07T16:52:18.156Z,11.30
2018-04-07T16:54:46.144Z,10.60
2018-04-07T16:57:14.061Z,7.23
2018-04-07T16:59:42.020Z,12.43
2018-04-07T17:02:09.934Z,15.10
2018-04-07T17:04:37.866Z,8.23
2018-04-07T17:07:05.765Z,8.73
2018-04-07T17:09:33.697Z,9.50
2018-04-07T17:12:01.742Z,15.00
2018-04-07T17:14:29.552Z,18.30
2018-04-07T17:16:57.733Z,18.97
2018-04-07T17:19:26.643Z,18.30
2018-04-07T17:21:54.589Z,24.07
2018-04-07T17:24:22.500Z,18.90
2018-04-07T17:26:50.656Z,30.63
2018-04-07T17:29:18.555Z,25.13
2018-04-07T17:31:46.492Z,16.87
2018-04-07T17:34:14.514Z,13.67
2018-04-07T17:36:42.431Z,15.90
2018-04-07T17:39:10.357Z,10.27
2018-04-07T17:41:38.289Z,16.10
2018-04-07T17:44:06.214Z,13.47
2018-04-07T17:46:34.137Z,16.23
2018-04-07T17:49:06.237Z,15.83
2018-04-07T17:51:30.008Z,12.73
2018-04-07T17:53:58.496Z,16.20
2018-04-07T17:56:26.637Z,16.23
2018-04-07T17:58:55.044Z,20.50
2018-04-07T18:01:23.264Z,14.63
2018-04-07T18:03:51.182Z,15.07
2018-04-07T18:06:19.134Z,13.43
2018-04-07T18:08:47.081Z,10.97
2018-04-07T18:11:15.066Z,9.60
2018-04-07T18:13:43.037Z,12.50
2018-04-07T18:16:10.961Z,10.30
2018-04-07T18:18:38.903Z,13.30
2018-04-07T18:21:06.867Z,11.03
2018-04-07T18:23:34.802Z,10.27
2018-04-07T18:26:02.719Z,14.50
2018-04-07T18:28:30.700Z,17.53
2018-04-07T18:30:58.824Z,19.27
2018-04-07T18:33:26.879Z,20.40
2018-04-07T18:35:54.753Z,21.27
2018-04-07T18:38:23.632Z,21.33
2018-04-07T18:40:51.767Z,16.23
2018-04-07T18:43:19.705Z,17.20
2018-04-07T18:45:47.661Z,15.07
2018-04-07T18:48:15.628Z,19.80
2018-04-07T18:50:43.529Z,17.70
2018-04-07T18:53:11.507Z,17.77
2018-04-07T18:55:39.438Z,16.83
2018-04-07T18:58:07.645Z,16.00
2018-04-07T19:00:35.833Z,15.73
2018-04-07T19:03:03.734Z,17.30
2018-04-07T19:05:31.657Z,15.40
2018-04-07T19:07:59.598Z,17.70
2018-04-07T19:10:27.519Z,14.67
2018-04-07T19:12:55.458Z,14.90
2018-04-07T19:15:23.430Z,18.17
2018-04-07T19:17:51.360Z,19.70
2018-04-07T19:20:20.241Z,24.07
2018-04-07T19:22:48.612Z,23.67
2018-04-07T19:25:16.528Z,25.90
2018-04-07T19:27:44.458Z,25.97
2018-04-07T19:30:12.431Z,20.67
2018-04-07T19:32:40.389Z,20.80
2018-04-07T19:35:08.304Z,18.40
2018-04-07T19:37:36.226Z,19.30
2018-04-07T19:40:04.174Z,18.33
2018-04-07T19:42:32.095Z,20.13
2018-04-07T19:45:00.055Z,19.27
2018-04-07T19:47:28.025Z,18.27
2018-04-07T19:49:56.311Z,16.67
2018-04-07T19:52:24.242Z,16.97
2018-04-07T19:54:52.222Z,16.13
2018-04-07T19:57:20.572Z,14.13
2018-04-07T19:59:48.496Z,15.10
2018-04-07T20:02:16.413Z,12.57
2018-04-07T20:04:44.352Z,14.43
2018-04-07T20:07:12.338Z,11.00
2018-04-07T20:09:40.263Z,11.90
2018-04-07T20:12:08.156Z,11.33
2018-04-07T20:14:36.094Z,12.73
2018-04-07T20:17:04.030Z,11.03
2018-04-07T20:19:31.950Z,10.60
2018-04-07T20:21:59.853Z,9.47
2018-04-07T20:24:27.868Z,10.30
2018-04-07T20:26:55.917Z,9.70
2018-04-07T20:29:23.867Z,12.70
2018-04-07T20:31:51.886Z,8.87
2018-04-07T20:34:19.832Z,10.33
2018-04-07T20:36:47.780Z,8.40
2018-04-07T20:39:15.769Z,8.83
2018-04-07T20:41:43.721Z,8.57
2018-04-07T20:44:11.612Z,8.47
2018-04-07T20:46:39.534Z,9.10
2018-04-07T20:49:07.635Z,9.47
2018-04-07T20:51:35.523Z,12.97
2018-04-07T20:54:03.441Z,10.50
2018-04-07T20:56:31.379Z,9.10
2018-04-07T20:58:59.413Z,10.50
2018-04-07T21:01:27.354Z,10.30
2018-04-07T21:03:55.264Z,9.87
2018-04-07T21:06:23.462Z,11.63
2018-04-07T21:08:51.423Z,9.90
2018-04-07T21:11:19.350Z,10.97
2018-04-07T21:13:47.319Z,10.70
2018-04-07T21:16:15.236Z,11.53
2018-04-07T21:18:43.926Z,11.17
2018-04-07T21:21:11.852Z,9.70
2018-04-07T21:23:40.146Z,12.43
2018-04-07T21:26:08.087Z,11.83
2018-04-07T21:28:36.008Z,8.97
2018-04-07T21:31:03.908Z,9.93
2018-04-07T21:33:31.942Z,9.70
2018-04-07T21:35:59.854Z,11.50
2018-04-07T21:38:27.789Z,10.67
2018-04-07T21:40:55.743Z,8.60
2018-04-07T21:43:23.661Z,9.77
2018-04-07T21:45:51.601Z,10.83
2018-04-07T21:48:19.535Z,11.17
2018-04-07T21:50:47.455Z,10.20
2018-04-07T21:53:15.365Z,14.70
2018-04-07T21:55:43.646Z,18.57
2018-04-07T21:58:11.795Z,13.60
2018-04-07T22:00:39.731Z,12.33
2018-04-07T22:03:07.647Z,12.33
2018-04-07T22:05:35.640Z,11.90
2018-04-07T22:08:03.581Z,15.53
2018-04-07T22:10:31.495Z,12.80
2018-04-07T22:12:59.430Z,12.17
2018-04-07T22:15:27.352Z,10.90
2018-04-07T22:17:55.279Z,11.00
2018-04-07T22:20:23.231Z,11.00
2018-04-07T22:22:51.216Z,14.20
2018-04-07T22:25:19.170Z,13.80
2018-04-07T22:27:47.087Z,11.77
2018-04-07T22:30:15.213Z,12.30
2018-04-07T22:32:43.361Z,12.73
2018-04-07T22:35:11.383Z,11.70
2018-04-07T22:37:39.338Z,11.80
2018-04-07T22:40:07.249Z,11.30
2018-04-07T22:42:35.183Z,16.07
2018-04-07T22:45:03.134Z,13.47
2018-04-07T22:47:31.057Z,11.83
2018-04-07T22:49:58.988Z,13.00
2018-04-07T22:52:26.944Z,11.60
2018-04-07T22:54:54.889Z,11.07
2018-04-07T22:57:22.828Z,10.60
2018-04-07T22:59:50.730Z,11.30
2018-04-07T23:02:18.664Z,11.10
2018-04-07T23:04:46.588Z,11.87
2018-04-07T23:07:14.522Z,12.33
2018-04-07T23:09:42.444Z,10.70
2018-04-07T23:12:10.393Z,13.23
2018-04-07T23:14:38.310Z,12.90
2018-04-07T23:17:06.279Z,13.17
2018-04-07T23:19:34.197Z,13.70
2018-04-07T23:22:02.419Z,12.30
2018-04-07T23:24:30.337Z,10.17
2018-04-07T23:26:58.281Z,9.67
2018-04-07T23:29:26.208Z,10.33
2018-04-07T23:31:54.120Z,14.40
2018-04-07T23:34:22.045Z,11.80
2018-04-07T23:36:49.985Z,10.97
2018-04-07T23:39:17.912Z,15.00
2018-04-07T23:41:45.840Z,16.67
2018-04-07T23:44:13.772Z,12.20
2018-04-07T23:46:41.729Z,13.57
2018-04-07T23:49:09.843Z,14.77
2018-04-07T23:51:37.750Z,12.50
2018-04-07T23:54:05.659Z,12.77
2018-04-07T23:56:33.593Z,14.67
2018-04-07T23:59:01.524Z,12.73
